KLVK

Livermore Municipal Airport

Livermore, California, USA
METAR KLVK 211253Z AUTO 00000KT 10SM BKN060 02/M02 A3018 RMK AO2 SLP220 T00171017
Observed Flight Rules
Feb-21 @ 12:53 UTC (25 minutes ago) Visual Flight Rules
Wind Visibility Clouds
Calm 10 miles
  • Broken at 6,000' AGL
Temperatures Readings
Current 2°C / 36°F
Dewpoint -2°C / 28°F
Humidity 75%
Altimeter 30.18" Hg
Pressure 1022 hPa
Elevation 117
METAR KLVK 211253Z AUTO 00000KT 10SM BKN060 02/M02 A3018 RMK AO2 SLP220 T00171017
Observed Flight Rules
Feb-21 @ 12:53 UTC
(25 minutes ago)
VFR
Wind Visibility
Calm 10 miles
Clouds
  • Broken at 6,000' AGL
Temperature Dewpoint
2°C / 36°F -2°C / 28°F
Humidity Altimeter Pressure
75% 30.18" Hg 1022 hPa